createdAt,value
2022-10-14T00:01:51.683Z,47.40
2022-10-14T00:04:53.648Z,43.55
2022-10-14T00:07:56.149Z,38.47
2022-10-14T00:10:57.716Z,40.05
2022-10-14T00:14:10.824Z,42.90
2022-10-14T00:17:12.419Z,44.63
2022-10-14T00:20:14.153Z,45.12
2022-10-14T00:23:15.728Z,43.78
2022-10-14T00:26:24.187Z,41.95
2022-10-14T00:29:26.124Z,39.33
2022-10-14T00:32:27.858Z,41.63
2022-10-14T00:35:32.601Z,39.08
2022-10-14T00:38:35.867Z,42.62
2022-10-14T00:41:38.284Z,46.37
2022-10-14T00:44:42.785Z,38.58
2022-10-14T00:47:45.347Z,44.05
2022-10-14T00:50:49.417Z,44.70
2022-10-14T00:53:51.869Z,52.13
2022-10-14T00:56:53.848Z,45.92
2022-10-14T01:00:01.723Z,47.97
2022-10-14T01:03:11.050Z,46.67
2022-10-14T01:06:18.359Z,45.40
2022-10-14T01:10:05.239Z,40.00
2022-10-14T01:13:10.595Z,47.60
2022-10-14T01:16:43.486Z,51.60
2022-10-14T01:20:00.479Z,48.42
2022-10-14T01:23:10.906Z,41.92
2022-10-14T01:26:46.901Z,41.67
2022-10-14T01:30:01.366Z,37.13
2022-10-14T01:33:14.508Z,43.08
2022-10-14T01:36:42.587Z,42.08
2022-10-14T01:39:55.534Z,48.38
2022-10-14T01:43:00.722Z,42.45
2022-10-14T01:46:05.503Z,38.30
2022-10-14T01:49:23.778Z,43.10
2022-10-14T01:52:31.337Z,43.70
2022-10-14T01:58:40.991Z,45.12
2022-10-14T02:01:42.768Z,38.20
2022-10-14T02:04:44.790Z,36.55
2022-10-14T02:07:51.399Z,32.45
2022-10-14T02:11:15.866Z,38.50
2022-10-14T02:14:28.078Z,35.72
2022-10-14T02:18:11.828Z,34.70
2022-10-14T02:21:29.037Z,33.17
2022-10-14T02:24:38.451Z,35.83
2022-10-14T02:27:43.740Z,36.88
2022-10-14T02:30:52.263Z,32.97
2022-10-14T02:33:58.766Z,33.72
2022-10-14T02:37:01.880Z,31.48
2022-10-14T02:40:15.514Z,34.47
2022-10-14T02:43:17.768Z,32.38
2022-10-14T02:46:23.089Z,33.30
2022-10-14T02:49:24.664Z,32.20
2022-10-14T02:52:26.768Z,30.77
2022-10-14T02:55:28.365Z,33.53
2022-10-14T02:58:30.446Z,25.55
2022-10-14T03:01:37.209Z,32.47
2022-10-14T03:04:39.353Z,37.15
2022-10-14T03:07:41.274Z,27.77
2022-10-14T03:10:46.443Z,28.33
2022-10-14T03:13:48.017Z,29.23
2022-10-14T03:16:52.403Z,27.98
2022-10-14T03:19:54.616Z,30.37
2022-10-14T03:22:56.216Z,29.83
2022-10-14T03:25:58.257Z,29.08
2022-10-14T03:28:59.911Z,32.63
2022-10-14T03:32:01.632Z,31.37
2022-10-14T03:35:03.552Z,34.50
2022-10-14T03:38:06.617Z,77.43
2022-10-14T03:41:08.320Z,33.60
2022-10-14T03:44:11.209Z,29.05
2022-10-14T03:47:13.024Z,32.65
2022-10-14T03:50:14.791Z,28.12
2022-10-14T03:53:16.715Z,29.30
2022-10-14T03:56:18.351Z,27.08
2022-10-14T03:59:20.355Z,26.98
2022-10-14T04:02:22.325Z,28.83
2022-10-14T04:05:24.528Z,25.17
2022-10-14T04:08:26.418Z,24.70
2022-10-14T04:11:28.055Z,25.55
2022-10-14T04:14:30.078Z,24.35
2022-10-14T04:17:31.750Z,24.65
2022-10-14T04:20:33.405Z,32.10
2022-10-14T04:23:36.201Z,28.17
2022-10-14T04:26:37.786Z,27.48
2022-10-14T04:29:39.660Z,29.42
2022-10-14T04:32:41.236Z,26.90
2022-10-14T04:35:42.805Z,23.87
2022-10-14T04:38:44.621Z,27.35
2022-10-14T04:41:46.228Z,25.10
2022-10-14T04:44:47.869Z,28.15
2022-10-14T04:47:50.705Z,27.75
2022-10-14T04:50:53.170Z,26.62
2022-10-14T04:53:54.729Z,26.27
2022-10-14T04:56:56.663Z,29.35
2022-10-14T04:59:58.232Z,29.37
2022-10-14T05:03:05.661Z,30.17
2022-10-14T05:09:09.105Z,32.88
2022-10-14T05:12:10.831Z,32.45
2022-10-14T05:15:12.847Z,30.77
2022-10-14T05:18:14.456Z,33.60
2022-10-14T05:21:16.476Z,31.55
2022-10-14T05:24:18.267Z,29.33
2022-10-14T05:27:20.182Z,33.88
2022-10-14T05:30:22.110Z,33.13
2022-10-14T05:33:24.413Z,35.13
2022-10-14T05:36:26.015Z,38.72
2022-10-14T05:39:27.609Z,33.83
2022-10-14T05:42:29.715Z,34.03
2022-10-14T05:45:31.317Z,31.65
2022-10-14T05:48:33.998Z,28.20
2022-10-14T05:51:36.042Z,31.95
2022-10-14T05:54:37.654Z,37.42
2022-10-14T05:57:39.777Z,40.92
2022-10-14T06:00:41.383Z,44.30
2022-10-14T06:03:43.202Z,35.80
2022-10-14T06:06:44.993Z,36.00
2022-10-14T06:09:46.807Z,41.58
2022-10-14T06:12:48.411Z,37.70
2022-10-14T06:15:50.169Z,41.60
2022-10-14T06:18:54.388Z,37.13
2022-10-14T06:21:56.317Z,32.22
2022-10-14T06:25:01.782Z,33.83
2022-10-14T06:28:05.908Z,42.35
2022-10-14T06:31:07.816Z,38.45
2022-10-14T06:34:09.564Z,41.85
2022-10-14T06:37:11.546Z,38.08
2022-10-14T06:40:13.223Z,43.22
2022-10-14T06:43:15.138Z,45.58
2022-10-14T06:46:16.838Z,41.60
2022-10-14T06:49:21.392Z,38.28
2022-10-14T06:52:23.746Z,38.00
2022-10-14T06:55:26.339Z,37.13
2022-10-14T06:58:29.365Z,38.85
2022-10-14T07:01:31.044Z,37.38
2022-10-14T07:04:33.019Z,33.22
2022-10-14T07:07:34.735Z,39.45
2022-10-14T07:10:36.313Z,48.03
2022-10-14T07:13:38.472Z,43.58
2022-10-14T07:16:42.745Z,40.45
2022-10-14T07:19:44.297Z,36.40
2022-10-14T07:22:45.904Z,40.22
2022-10-14T07:25:48.023Z,38.38
2022-10-14T07:28:49.723Z,32.35
2022-10-14T07:31:51.578Z,33.75
2022-10-14T07:34:53.300Z,31.95
2022-10-14T07:37:55.623Z,34.47
2022-10-14T07:41:02.359Z,35.90
2022-10-14T07:44:08.626Z,30.15
2022-10-14T07:47:10.413Z,37.03
2022-10-14T07:50:12.031Z,33.25
2022-10-14T07:53:14.016Z,36.33
2022-10-14T07:56:15.935Z,39.75
2022-10-14T07:59:19.838Z,43.22
2022-10-14T08:02:21.506Z,31.83
2022-10-14T08:05:37.686Z,31.70
2022-10-14T08:08:41.042Z,26.67
2022-10-14T08:11:44.286Z,27.15
2022-10-14T08:14:45.950Z,32.65
2022-10-14T08:17:47.520Z,32.33
2022-10-14T08:20:49.554Z,30.98
2022-10-14T08:23:51.270Z,45.53
2022-10-14T08:26:59.182Z,29.52
2022-10-14T08:30:00.774Z,37.25
2022-10-14T08:33:05.146Z,49.35
2022-10-14T08:36:07.534Z,31.62
2022-10-14T08:42:22.534Z,29.05
2022-10-14T08:45:34.866Z,35.53
2022-10-14T08:48:38.143Z,27.92
2022-10-14T08:51:44.359Z,24.45
2022-10-14T08:54:57.909Z,36.40
2022-10-14T08:58:14.406Z,28.45
2022-10-14T09:01:19.069Z,24.65
2022-10-14T09:04:21.492Z,36.67
2022-10-14T09:07:23.613Z,32.38
2022-10-14T09:10:42.119Z,26.35
2022-10-14T09:13:49.430Z,33.15
2022-10-14T09:16:56.973Z,30.37
2022-10-14T09:20:13.385Z,31.70
2022-10-14T09:23:23.895Z,23.45
2022-10-14T09:26:30.398Z,31.10
2022-10-14T09:29:37.442Z,24.25
2022-10-14T09:32:49.036Z,25.88
2022-10-14T09:35:51.350Z,24.35
2022-10-14T09:38:55.600Z,26.60
2022-10-14T09:41:58.342Z,19.00
2022-10-14T09:45:09.495Z,20.30
2022-10-14T09:48:17.369Z,22.67
2022-10-14T09:51:23.334Z,20.33
2022-10-14T09:54:28.745Z,18.70
2022-10-14T09:57:31.241Z,21.75
2022-10-14T10:00:36.368Z,29.73
2022-10-14T10:03:39.953Z,21.62
2022-10-14T10:06:53.232Z,23.52
2022-10-14T10:09:56.292Z,24.23
2022-10-14T10:12:58.735Z,23.25
2022-10-14T10:16:04.210Z,19.60
2022-10-14T10:19:32.371Z,28.92
2022-10-14T10:25:40.813Z,26.30
2022-10-14T10:28:49.090Z,19.95
2022-10-14T10:32:07.758Z,19.05
2022-10-14T10:35:09.844Z,19.25
2022-10-14T10:38:36.167Z,20.05
2022-10-14T10:41:47.585Z,20.52
2022-10-14T10:45:16.256Z,23.70
2022-10-14T10:48:41.165Z,18.90
2022-10-14T10:51:57.659Z,20.20
2022-10-14T10:55:06.934Z,18.50
2022-10-14T10:58:20.530Z,20.23
2022-10-14T11:01:32.388Z,19.20
2022-10-14T11:04:50.776Z,15.05
2022-10-14T11:08:42.213Z,13.57
2022-10-14T11:12:10.489Z,22.52
2022-10-14T11:15:24.944Z,17.15
2022-10-14T11:18:45.363Z,19.77
2022-10-14T11:22:04.587Z,19.25
2022-10-14T11:25:39.063Z,16.27
2022-10-14T11:28:51.533Z,16.08
2022-10-14T11:32:21.328Z,12.85
2022-10-14T11:36:00.650Z,17.85
2022-10-14T11:39:39.684Z,14.73
2022-10-14T11:42:44.193Z,20.48
2022-10-14T11:46:02.315Z,15.13
2022-10-14T11:49:12.805Z,12.10
2022-10-14T11:52:38.373Z,16.52
2022-10-14T11:55:46.730Z,17.17
2022-10-14T11:58:52.188Z,16.80
2022-10-14T12:02:00.914Z,18.02
2022-10-14T12:05:22.294Z,15.13
2022-10-14T12:08:34.841Z,15.20
2022-10-14T12:11:49.218Z,17.83
2022-10-14T12:15:00.079Z,25.25
2022-10-14T12:18:05.608Z,16.42
2022-10-14T12:21:21.933Z,17.20
2022-10-14T12:24:30.772Z,20.02
2022-10-14T12:27:33.501Z,15.60
2022-10-14T12:30:41.335Z,19.77
2022-10-14T12:34:11.145Z,21.30
2022-10-14T12:37:28.836Z,17.50
2022-10-14T12:40:35.198Z,13.35
2022-10-14T12:43:36.926Z,19.62
2022-10-14T12:46:50.484Z,15.70
2022-10-14T12:49:56.451Z,24.02
2022-10-14T12:53:02.130Z,17.35
2022-10-14T12:56:05.716Z,22.37
2022-10-14T12:59:19.247Z,21.25
2022-10-14T13:02:33.590Z,19.17
2022-10-14T13:05:42.186Z,22.80
2022-10-14T13:09:13.012Z,16.23
2022-10-14T13:12:21.059Z,19.67
2022-10-14T13:15:51.540Z,15.90
2022-10-14T13:18:54.625Z,25.62
2022-10-14T13:21:56.412Z,25.83
2022-10-14T13:25:19.928Z,20.67
2022-10-14T13:28:35.491Z,19.52
2022-10-14T13:31:47.955Z,23.23
2022-10-14T13:35:08.121Z,15.70
2022-10-14T13:38:17.089Z,22.00
2022-10-14T13:41:29.817Z,16.27
2022-10-14T13:44:34.503Z,23.00
2022-10-14T13:47:36.722Z,19.80
2022-10-14T13:50:38.712Z,23.90
2022-10-14T13:53:53.082Z,26.17
2022-10-14T13:57:19.847Z,19.87
2022-10-14T14:00:41.628Z,24.30
2022-10-14T14:03:46.518Z,21.65
2022-10-14T14:07:06.764Z,21.25
2022-10-14T14:10:12.160Z,26.33
2022-10-14T14:13:14.202Z,28.02
2022-10-14T14:16:22.445Z,35.95
2022-10-14T14:19:30.238Z,28.45
2022-10-14T14:22:31.917Z,28.73
2022-10-14T14:25:35.316Z,31.70
2022-10-14T14:28:38.966Z,36.83
2022-10-14T14:35:06.962Z,47.00
2022-10-14T14:38:25.587Z,47.08
2022-10-14T14:41:30.355Z,55.60
2022-10-14T14:44:34.629Z,50.30
2022-10-14T14:47:36.528Z,45.90
2022-10-14T14:50:43.359Z,47.42
2022-10-14T14:53:50.738Z,55.35
2022-10-14T15:00:06.613Z,53.70
2022-10-14T15:03:09.059Z,52.45
2022-10-14T15:06:18.126Z,66.47
2022-10-14T15:09:27.171Z,64.47
2022-10-14T15:12:42.142Z,56.58
2022-10-14T15:15:53.532Z,79.50
2022-10-14T15:19:21.085Z,89.50
2022-10-14T15:22:36.199Z,103.38
2022-10-14T15:25:38.324Z,94.75
2022-10-14T15:28:40.012Z,98.87
2022-10-14T15:32:13.485Z,88.60
2022-10-14T15:35:17.919Z,85.53
2022-10-14T15:38:20.297Z,89.82
2022-10-14T15:41:22.275Z,81.75
2022-10-14T15:44:23.929Z,99.45
2022-10-14T15:47:25.647Z,89.18
2022-10-14T15:50:27.692Z,91.45
2022-10-14T15:53:29.796Z,64.43
2022-10-14T15:56:31.363Z,55.95
2022-10-14T15:59:33.260Z,53.42
2022-10-14T16:02:35.344Z,47.13
2022-10-14T16:05:38.668Z,38.15
2022-10-14T16:08:40.268Z,44.53
2022-10-14T16:11:42.418Z,43.50
2022-10-14T16:14:44.099Z,46.47
2022-10-14T16:17:48.756Z,66.50
2022-10-14T16:20:53.574Z,93.47
2022-10-14T16:23:55.662Z,100.15
2022-10-14T16:26:57.214Z,90.07
2022-10-14T16:29:59.058Z,103.57
2022-10-14T16:33:00.954Z,83.43
2022-10-14T16:36:03.923Z,91.43
2022-10-14T16:39:05.570Z,72.53
2022-10-14T16:42:09.446Z,91.93
2022-10-14T16:45:11.934Z,70.68
2022-10-14T16:48:13.502Z,65.72
2022-10-14T16:51:15.733Z,65.35
2022-10-14T16:54:17.382Z,59.10
2022-10-14T16:57:19.292Z,61.65
2022-10-14T17:00:21.093Z,61.65
2022-10-14T17:03:22.726Z,62.00
2022-10-14T17:06:25.792Z,62.47
2022-10-14T17:09:27.605Z,55.28
2022-10-14T17:12:29.293Z,60.03
2022-10-14T17:15:31.671Z,67.05
2022-10-14T17:18:35.466Z,70.82
2022-10-14T17:21:38.489Z,72.25
2022-10-14T17:24:40.346Z,94.95
2022-10-14T17:27:42.708Z,85.03
2022-10-14T17:30:44.636Z,84.62
2022-10-14T17:33:47.191Z,83.28
2022-10-14T17:36:49.506Z,73.28
2022-10-14T17:39:51.592Z,73.82
2022-10-14T17:42:53.294Z,74.37
2022-10-14T17:46:02.513Z,72.05
2022-10-14T17:49:06.057Z,74.65
2022-10-14T17:52:08.086Z,71.87
2022-10-14T17:55:10.168Z,69.60
2022-10-14T17:58:12.335Z,71.32
2022-10-14T18:01:15.915Z,72.28
2022-10-14T18:04:18.247Z,78.05
2022-10-14T18:07:23.199Z,73.37
2022-10-14T18:10:25.667Z,79.40
2022-10-14T18:13:27.855Z,81.97
2022-10-14T18:16:34.267Z,81.45
2022-10-14T18:19:36.897Z,80.15
2022-10-14T18:22:38.747Z,88.37
2022-10-14T18:25:41.981Z,82.37
2022-10-14T18:28:46.922Z,75.65
2022-10-14T18:31:50.047Z,82.80
2022-10-14T18:34:51.895Z,80.45
2022-10-14T18:37:53.803Z,74.32
2022-10-14T18:41:08.643Z,76.50
2022-10-14T18:44:10.356Z,91.72
2022-10-14T18:47:12.489Z,75.07
2022-10-14T18:50:14.301Z,61.20
2022-10-14T18:53:16.238Z,67.35
2022-10-14T18:56:21.630Z,62.92
2022-10-14T18:59:23.960Z,61.47
2022-10-14T19:02:25.892Z,65.68
2022-10-14T19:05:32.851Z,67.32
2022-10-14T19:08:37.948Z,76.30
2022-10-14T19:11:41.425Z,64.32
2022-10-14T19:14:44.454Z,62.35
2022-10-14T19:17:52.261Z,62.62
2022-10-14T19:21:03.834Z,66.12
2022-10-14T19:24:08.459Z,68.80
2022-10-14T19:27:10.892Z,64.22
2022-10-14T19:30:13.520Z,57.83
2022-10-14T19:33:15.538Z,53.13
2022-10-14T19:36:19.939Z,52.42
2022-10-14T19:39:21.962Z,53.03
2022-10-14T19:42:24.322Z,49.72
2022-10-14T19:45:26.337Z,45.45
2022-10-14T19:48:28.499Z,43.53
2022-10-14T19:51:31.430Z,50.15
2022-10-14T19:54:33.384Z,48.87
2022-10-14T19:57:35.307Z,45.45
2022-10-14T20:00:37.553Z,45.58
2022-10-14T20:03:40.434Z,44.00
2022-10-14T20:06:43.838Z,41.30
2022-10-14T20:09:45.726Z,44.90
2022-10-14T20:12:47.619Z,46.67
2022-10-14T20:15:56.588Z,48.03
2022-10-14T20:18:58.263Z,53.25
2022-10-14T20:22:02.005Z,51.88
2022-10-14T20:25:04.572Z,49.47
2022-10-14T20:28:06.171Z,52.17
2022-10-14T20:31:10.634Z,56.63
2022-10-14T20:34:12.303Z,50.10
2022-10-14T20:37:14.383Z,54.38
2022-10-14T20:40:16.551Z,48.60
2022-10-14T20:43:18.156Z,52.40
2022-10-14T20:46:20.389Z,54.45
2022-10-14T20:49:22.012Z,56.20
2022-10-14T20:52:24.330Z,48.15
2022-10-14T20:55:26.557Z,41.83
2022-10-14T20:58:28.421Z,48.45
2022-10-14T21:01:31.142Z,45.95
2022-10-14T21:04:33.127Z,46.90
2022-10-14T21:07:34.714Z,47.25
2022-10-14T21:10:36.335Z,44.15
2022-10-14T21:13:38.473Z,59.10
2022-10-14T21:16:42.455Z,43.83
2022-10-14T21:19:44.046Z,45.63
2022-10-14T21:22:46.696Z,43.17
2022-10-14T21:25:56.166Z,43.28
2022-10-14T21:28:58.381Z,44.42
2022-10-14T21:32:00.018Z,40.97
2022-10-14T21:35:01.920Z,47.15
2022-10-14T21:38:03.616Z,43.72
2022-10-14T21:41:06.174Z,43.75
2022-10-14T21:44:09.787Z,44.25
2022-10-14T21:47:11.444Z,38.55
2022-10-14T21:50:13.323Z,37.35
2022-10-14T21:53:16.180Z,38.38
2022-10-14T21:56:18.335Z,37.90
2022-10-14T21:59:20.042Z,38.47
2022-10-14T22:02:23.111Z,39.25
2022-10-14T22:05:24.820Z,36.15
2022-10-14T22:08:33.086Z,35.67
2022-10-14T22:11:38.809Z,42.97
2022-10-14T22:14:40.718Z,35.78
2022-10-14T22:17:42.277Z,43.65
2022-10-14T22:20:43.886Z,34.22
2022-10-14T22:23:51.273Z,35.30
2022-10-14T22:26:56.433Z,45.12
2022-10-14T22:29:58.032Z,34.45
2022-10-14T22:33:00.130Z,35.78
2022-10-14T22:36:09.438Z,34.40
2022-10-14T22:39:15.908Z,35.92
2022-10-14T22:42:17.512Z,41.92
2022-10-14T22:45:19.126Z,38.42
2022-10-14T22:48:21.040Z,34.13
2022-10-14T22:51:28.795Z,37.30
2022-10-14T22:54:30.420Z,36.35
2022-10-14T22:57:32.067Z,36.38
2022-10-14T23:00:34.285Z,38.65
2022-10-14T23:03:36.867Z,42.10
2022-10-14T23:06:39.867Z,40.17
2022-10-14T23:09:41.466Z,36.75
2022-10-14T23:12:43.031Z,36.45
2022-10-14T23:15:55.593Z,33.58
2022-10-14T23:18:59.189Z,36.55
2022-10-14T23:22:00.842Z,40.60
2022-10-14T23:25:02.535Z,37.13
2022-10-14T23:28:04.711Z,36.33
2022-10-14T23:31:14.923Z,40.17
2022-10-14T23:34:16.797Z,33.15
2022-10-14T23:37:18.379Z,36.38
2022-10-14T23:40:20.426Z,37.30
2022-10-14T23:43:21.982Z,38.85
2022-10-14T23:46:24.506Z,35.33
2022-10-14T23:49:26.663Z,35.55
2022-10-14T23:52:28.355Z,35.85
2022-10-14T23:55:30.563Z,28.92
2022-10-14T23:58:33.372Z,33.20
